createdAt,value
2023-04-23T00:01:05.541Z,10.07
2023-04-23T00:03:36.471Z,9.83
2023-04-23T00:06:08.023Z,9.77
2023-04-23T00:08:35.122Z,10.07
2023-04-23T00:11:01.965Z,10.00
2023-04-23T00:13:28.615Z,9.77
2023-04-23T00:15:55.573Z,9.10
2023-04-23T00:18:22.130Z,9.57
2023-04-23T00:20:48.675Z,9.90
2023-04-23T00:23:15.408Z,9.60
2023-04-23T00:25:41.991Z,9.47
2023-04-23T00:28:08.550Z,10.13
2023-04-23T00:30:35.192Z,9.80
2023-04-23T00:33:01.998Z,10.60
2023-04-23T00:35:28.670Z,10.60
2023-04-23T00:37:55.659Z,10.73
2023-04-23T00:40:23.600Z,10.30
2023-04-23T00:42:52.286Z,10.47
2023-04-23T00:45:18.888Z,10.10
2023-04-23T00:47:46.269Z,9.90
2023-04-23T00:50:13.264Z,10.27
2023-04-23T00:52:40.817Z,9.77
2023-04-23T00:55:08.523Z,10.13
2023-04-23T00:57:35.770Z,10.23
2023-04-23T01:00:03.184Z,10.47
2023-04-23T01:02:31.012Z,10.13
2023-04-23T01:04:58.784Z,9.97
2023-04-23T01:07:26.218Z,10.40
2023-04-23T01:09:52.877Z,10.00
2023-04-23T01:12:19.520Z,9.70
2023-04-23T01:14:46.206Z,10.20
2023-04-23T01:17:12.864Z,10.10
2023-04-23T01:19:39.459Z,9.23
2023-04-23T01:22:12.837Z,10.30
2023-04-23T01:24:39.908Z,9.17
2023-04-23T01:27:07.338Z,9.57
2023-04-23T01:29:34.291Z,8.10
2023-04-23T01:32:01.053Z,8.80
2023-04-23T01:34:27.685Z,9.00
2023-04-23T01:36:54.660Z,8.33
2023-04-23T01:39:21.187Z,8.43
2023-04-23T01:41:48.160Z,8.23
2023-04-23T01:44:14.715Z,8.33
2023-04-23T01:46:41.954Z,8.37
2023-04-23T01:49:08.812Z,8.60
2023-04-23T01:51:35.594Z,7.83
2023-04-23T01:54:02.177Z,8.40
2023-04-23T01:56:30.617Z,7.50
2023-04-23T01:58:57.225Z,7.67
2023-04-23T02:01:23.831Z,7.93
2023-04-23T02:03:51.013Z,7.50
2023-04-23T02:06:17.612Z,8.13
2023-04-23T02:08:44.246Z,7.50
2023-04-23T02:11:10.791Z,7.57
2023-04-23T02:13:37.348Z,7.77
2023-04-23T02:16:04.289Z,8.20
2023-04-23T02:18:30.816Z,7.60
2023-04-23T02:20:59.743Z,7.50
2023-04-23T02:23:26.357Z,8.00
2023-04-23T02:25:52.913Z,7.07
2023-04-23T02:28:19.454Z,7.60
2023-04-23T02:30:47.924Z,7.57
2023-04-23T02:33:14.514Z,7.97
2023-04-23T02:35:41.116Z,6.93
2023-04-23T02:38:07.903Z,6.73
2023-04-23T02:40:34.572Z,7.27
2023-04-23T02:43:01.237Z,6.83
2023-04-23T02:45:27.818Z,7.03
2023-04-23T02:47:54.509Z,7.13
2023-04-23T02:50:21.226Z,7.00
2023-04-23T02:52:48.918Z,7.57
2023-04-23T02:55:16.078Z,6.53
2023-04-23T02:57:42.676Z,6.90
2023-04-23T03:00:09.792Z,6.80
2023-04-23T03:02:40.960Z,6.47
2023-04-23T03:05:08.062Z,6.63
2023-04-23T03:07:34.605Z,7.17
2023-04-23T03:10:01.140Z,6.23
2023-04-23T03:12:28.073Z,6.40
2023-04-23T03:14:54.918Z,6.30
2023-04-23T03:17:23.829Z,6.97
2023-04-23T03:19:50.661Z,6.47
2023-04-23T03:22:18.558Z,6.57
2023-04-23T03:24:45.111Z,6.67
2023-04-23T03:27:11.734Z,6.13
2023-04-23T03:29:38.846Z,5.90
2023-04-23T03:32:05.462Z,5.70
2023-04-23T03:34:32.033Z,6.67
2023-04-23T03:36:58.547Z,6.50
2023-04-23T03:39:25.504Z,6.20
2023-04-23T03:41:54.169Z,6.47
2023-04-23T03:44:25.098Z,6.00
2023-04-23T03:46:52.370Z,6.00
2023-04-23T03:49:20.091Z,6.33
2023-04-23T03:51:46.606Z,5.97
2023-04-23T03:54:13.132Z,6.20
2023-04-23T03:56:42.234Z,6.50
2023-04-23T03:59:17.576Z,6.17
2023-04-23T04:01:45.418Z,6.13
2023-04-23T04:04:12.308Z,6.40
2023-04-23T04:06:38.979Z,6.30
2023-04-23T04:09:07.976Z,6.37
2023-04-23T04:11:34.848Z,6.07
2023-04-23T04:14:01.343Z,6.40
2023-04-23T04:16:27.979Z,6.90
2023-04-23T04:18:56.417Z,6.13
2023-04-23T04:21:23.236Z,6.10
2023-04-23T04:23:49.791Z,6.67
2023-04-23T04:26:16.364Z,6.40
2023-04-23T04:28:42.921Z,6.30
2023-04-23T04:31:10.473Z,6.80
2023-04-23T04:33:39.806Z,6.47
2023-04-23T04:36:08.730Z,6.53
2023-04-23T04:38:37.880Z,6.20
2023-04-23T04:41:05.136Z,7.07
2023-04-23T04:43:32.871Z,6.53
2023-04-23T04:45:59.445Z,6.30
2023-04-23T04:48:26.045Z,6.20
2023-04-23T04:50:53.070Z,6.43
2023-04-23T04:53:19.606Z,5.60
2023-04-23T04:55:46.119Z,21.77
2023-04-23T04:58:12.669Z,10.37
2023-04-23T05:00:39.716Z,7.60
2023-04-23T05:03:06.723Z,7.37
2023-04-23T05:05:33.785Z,6.97
2023-04-23T05:08:02.296Z,6.10
2023-04-23T05:10:29.188Z,7.77
2023-04-23T05:12:56.896Z,6.23
2023-04-23T05:15:23.502Z,6.50
2023-04-23T05:17:53.348Z,6.03
2023-04-23T05:20:20.374Z,8.43
2023-04-23T05:22:47.229Z,7.80
2023-04-23T05:25:13.967Z,7.53
2023-04-23T05:27:40.967Z,6.53
2023-04-23T05:30:09.467Z,6.80
2023-04-23T05:32:36.318Z,6.40
2023-04-23T05:35:03.708Z,5.77
2023-04-23T05:37:30.257Z,6.57
2023-04-23T05:39:58.143Z,5.40
2023-04-23T05:42:24.811Z,6.07
2023-04-23T05:44:51.521Z,5.90
2023-04-23T05:47:18.133Z,6.03
2023-04-23T05:49:44.613Z,6.17
2023-04-23T05:52:11.411Z,6.07
2023-04-23T05:54:37.930Z,6.27
2023-04-23T05:57:05.210Z,6.37
2023-04-23T05:59:32.000Z,6.53
2023-04-23T06:01:58.558Z,6.10
2023-04-23T06:04:25.328Z,6.27
2023-04-23T06:06:51.956Z,6.30
2023-04-23T06:09:18.469Z,6.30
2023-04-23T06:11:45.070Z,5.70
2023-04-23T06:14:11.594Z,5.30
2023-04-23T06:16:38.154Z,6.03
2023-04-23T06:19:04.709Z,6.10
2023-04-23T06:21:31.339Z,5.63
2023-04-23T06:23:58.058Z,5.97
2023-04-23T06:26:24.648Z,5.70
2023-04-23T06:28:54.039Z,6.53
2023-04-23T06:31:29.016Z,5.90
2023-04-23T06:33:55.544Z,6.20
2023-04-23T06:36:22.078Z,5.77
2023-04-23T06:38:48.595Z,6.60
2023-04-23T06:41:15.576Z,6.47
2023-04-23T06:43:42.342Z,5.33
2023-04-23T06:46:27.777Z,5.10
2023-04-23T06:48:54.750Z,5.40
2023-04-23T06:51:21.303Z,5.50
2023-04-23T06:53:47.808Z,5.30
2023-04-23T06:56:14.649Z,5.43
2023-04-23T06:58:41.251Z,5.33
2023-04-23T07:01:16.298Z,5.33
2023-04-23T07:03:45.199Z,5.33
2023-04-23T07:06:12.132Z,4.67
2023-04-23T07:08:39.779Z,4.40
2023-04-23T07:11:06.405Z,4.90
2023-04-23T07:13:33.218Z,4.70
2023-04-23T07:15:59.753Z,4.90
2023-04-23T07:18:26.271Z,4.97
2023-04-23T07:20:53.175Z,4.40
2023-04-23T07:23:19.701Z,4.60
2023-04-23T07:25:46.234Z,4.23
2023-04-23T07:28:12.783Z,4.27
2023-04-23T07:30:39.385Z,4.63
2023-04-23T07:33:06.095Z,4.60
2023-04-23T07:35:32.648Z,4.20
2023-04-23T07:37:59.127Z,4.53
2023-04-23T07:40:25.754Z,4.77
2023-04-23T07:42:52.538Z,4.57
2023-04-23T07:45:19.601Z,4.50
2023-04-23T07:47:49.469Z,5.10
2023-04-23T07:50:16.116Z,5.23
2023-04-23T07:52:42.700Z,4.63
2023-04-23T07:55:09.766Z,4.27
2023-04-23T07:57:36.506Z,4.17
2023-04-23T08:00:03.838Z,3.80
2023-04-23T08:02:38.528Z,3.83
2023-04-23T08:05:05.447Z,3.97
2023-04-23T08:07:32.179Z,3.90
2023-04-23T08:10:02.941Z,3.97
2023-04-23T08:12:30.833Z,4.43
2023-04-23T08:14:58.173Z,3.80
2023-04-23T08:17:31.003Z,3.87
2023-04-23T08:19:57.497Z,3.90
2023-04-23T08:22:24.072Z,4.10
2023-04-23T08:24:50.606Z,3.80
2023-04-23T08:27:17.184Z,4.10
2023-04-23T08:29:44.184Z,4.03
2023-04-23T08:32:10.915Z,3.70
2023-04-23T08:34:37.622Z,3.80
2023-04-23T08:37:04.947Z,3.50
2023-04-23T08:39:33.055Z,3.73
2023-04-23T08:42:02.524Z,3.57
2023-04-23T08:44:29.879Z,3.67
2023-04-23T08:46:56.907Z,3.73
2023-04-23T08:49:24.471Z,3.60
2023-04-23T08:51:54.531Z,3.60
2023-04-23T08:54:28.132Z,3.60
2023-04-23T08:56:57.592Z,3.40
2023-04-23T08:59:29.776Z,3.27
2023-04-23T09:01:57.609Z,3.30
2023-04-23T09:04:26.028Z,3.03
2023-04-23T09:06:52.688Z,3.33
2023-04-23T09:09:23.552Z,3.10
2023-04-23T09:11:51.763Z,3.20
2023-04-23T09:14:19.855Z,2.57
2023-04-23T09:16:46.546Z,2.23
2023-04-23T09:19:13.366Z,2.17
2023-04-23T09:21:41.121Z,3.20
2023-04-23T09:24:11.509Z,2.80
2023-04-23T09:26:45.494Z,2.40
2023-04-23T09:29:19.744Z,2.80
2023-04-23T09:31:47.830Z,2.93
2023-04-23T09:34:21.036Z,2.80
2023-04-23T09:36:49.283Z,2.43
2023-04-23T09:39:16.973Z,3.00
2023-04-23T09:41:43.782Z,2.40
2023-04-23T09:44:10.354Z,2.73
2023-04-23T09:46:37.780Z,2.60
2023-04-23T09:49:06.117Z,2.70
2023-04-23T09:51:33.165Z,2.60
2023-04-23T09:54:01.681Z,2.80
2023-04-23T09:56:28.326Z,2.53
2023-04-23T09:58:54.840Z,2.47
2023-04-23T10:01:27.791Z,2.90
2023-04-23T10:03:56.630Z,2.60
2023-04-23T10:06:42.428Z,2.40
2023-04-23T10:09:15.622Z,2.80
2023-04-23T10:11:42.567Z,2.70
2023-04-23T10:14:09.484Z,2.70
2023-04-23T10:16:46.357Z,2.80
2023-04-23T10:19:18.252Z,2.63
2023-04-23T10:21:54.661Z,3.10
2023-04-23T10:24:25.312Z,2.80
2023-04-23T10:26:54.068Z,2.80
2023-04-23T10:29:23.621Z,2.93
2023-04-23T10:31:51.201Z,2.70
2023-04-23T10:34:17.921Z,2.90
2023-04-23T10:36:44.456Z,2.50
2023-04-23T10:39:12.313Z,2.70
2023-04-23T10:41:40.440Z,2.90
2023-04-23T10:44:07.303Z,2.90
2023-04-23T10:46:36.484Z,3.37
2023-04-23T10:49:06.873Z,3.23
2023-04-23T10:52:17.151Z,3.13
2023-04-23T10:54:21.360Z,2.97
2023-04-23T10:56:58.050Z,3.20
2023-04-23T10:59:25.046Z,2.80
2023-04-23T11:01:51.619Z,2.93
2023-04-23T11:04:25.295Z,2.70
2023-04-23T11:06:53.274Z,2.70
2023-04-23T11:09:29.773Z,2.07
2023-04-23T11:11:58.016Z,2.30
2023-04-23T11:14:47.634Z,2.20
2023-04-23T11:17:15.935Z,2.00
2023-04-23T11:19:43.423Z,2.00
2023-04-23T11:22:18.599Z,2.23
2023-04-23T11:24:48.271Z,1.80
2023-04-23T11:27:17.570Z,1.50
2023-04-23T11:29:45.176Z,1.60
2023-04-23T11:32:13.583Z,1.60
2023-04-23T11:34:41.622Z,1.50
2023-04-23T11:37:09.955Z,1.40
2023-04-23T11:39:36.819Z,1.60
2023-04-23T11:42:04.726Z,1.90
2023-04-23T11:44:31.672Z,2.33
2023-04-23T11:47:02.310Z,2.70
2023-04-23T11:49:29.033Z,2.70
2023-04-23T11:51:55.658Z,2.50
2023-04-23T11:54:27.337Z,2.37
2023-04-23T11:56:54.843Z,2.40
2023-04-23T11:59:21.418Z,2.67
2023-04-23T12:01:52.134Z,2.40
2023-04-23T12:04:19.932Z,3.00
2023-04-23T12:06:47.862Z,2.17
2023-04-23T12:09:15.403Z,1.90
2023-04-23T12:11:42.827Z,1.70
2023-04-23T12:14:09.961Z,1.80
2023-04-23T12:16:36.448Z,1.60
2023-04-23T12:19:03.112Z,1.50
2023-04-23T12:21:30.042Z,1.37
2023-04-23T12:23:57.284Z,1.30
2023-04-23T12:26:25.696Z,1.57
2023-04-23T12:28:53.381Z,1.60
2023-04-23T12:31:25.402Z,1.67
2023-04-23T12:34:08.559Z,1.37
2023-04-23T12:36:36.217Z,1.30
2023-04-23T12:39:24.805Z,1.57
2023-04-23T12:41:55.430Z,1.27
2023-04-23T12:44:21.999Z,0.87
2023-04-23T12:46:57.497Z,0.90
2023-04-23T12:49:24.747Z,1.30
2023-04-23T12:51:52.682Z,0.80
2023-04-23T12:54:19.662Z,1.30
2023-04-23T12:56:46.221Z,0.70
2023-04-23T12:59:12.814Z,0.90
2023-04-23T13:01:39.545Z,0.80
2023-04-23T13:04:06.525Z,1.40
2023-04-23T13:06:33.279Z,1.10
2023-04-23T13:09:02.326Z,1.10
2023-04-23T13:11:29.071Z,0.70
2023-04-23T13:13:55.586Z,0.80
2023-04-23T13:16:22.146Z,0.80
2023-04-23T13:18:51.495Z,0.60
2023-04-23T13:21:18.383Z,0.50
2023-04-23T13:23:45.081Z,0.67
2023-04-23T13:26:11.629Z,0.57
2023-04-23T13:28:38.208Z,0.50
2023-04-23T13:31:04.898Z,0.50
2023-04-23T13:33:31.624Z,0.77
2023-04-23T13:35:58.745Z,0.80
2023-04-23T13:38:26.248Z,0.60
2023-04-23T13:40:52.926Z,0.63
2023-04-23T13:43:19.623Z,0.70
2023-04-23T13:45:47.089Z,0.67
2023-04-23T13:48:16.489Z,0.70
2023-04-23T13:50:44.667Z,0.53
2023-04-23T13:53:11.620Z,0.70
2023-04-23T13:55:38.399Z,0.70
2023-04-23T13:58:06.270Z,0.70
2023-04-23T14:00:33.144Z,0.60
2023-04-23T14:02:59.817Z,0.80
2023-04-23T14:05:26.486Z,0.80
2023-04-23T14:07:53.021Z,0.63
2023-04-23T14:10:19.656Z,0.80
2023-04-23T14:12:46.724Z,0.67
2023-04-23T14:15:13.694Z,0.70
2023-04-23T14:17:42.897Z,0.77
2023-04-23T14:20:09.619Z,0.70
2023-04-23T14:22:36.887Z,0.80
2023-04-23T14:25:04.815Z,0.90
2023-04-23T14:27:39.026Z,0.70
2023-04-23T14:30:06.154Z,0.70
2023-04-23T14:32:32.821Z,0.67
2023-04-23T14:34:59.366Z,0.60
2023-04-23T14:37:25.971Z,0.80
2023-04-23T14:39:52.546Z,0.70
2023-04-23T14:42:19.083Z,0.60
2023-04-23T14:44:45.682Z,0.67
2023-04-23T14:47:12.182Z,0.80
2023-04-23T14:49:40.708Z,0.70
2023-04-23T14:52:07.527Z,0.80
2023-04-23T14:54:36.245Z,0.80
2023-04-23T14:57:02.999Z,0.70
2023-04-23T14:59:29.551Z,0.70
2023-04-23T15:01:56.942Z,0.70
2023-04-23T15:04:23.725Z,0.70
2023-04-23T15:06:50.562Z,0.90
2023-04-23T15:09:17.199Z,0.70
2023-04-23T15:11:43.829Z,0.80
2023-04-23T15:14:16.427Z,0.80
2023-04-23T15:16:48.758Z,0.60
2023-04-23T15:19:19.651Z,0.60
2023-04-23T15:21:47.032Z,0.80
2023-04-23T15:24:14.138Z,0.70
2023-04-23T15:26:40.893Z,0.80
2023-04-23T15:29:10.621Z,0.83
2023-04-23T15:31:37.983Z,0.80
2023-04-23T15:34:07.154Z,0.63
2023-04-23T15:36:35.391Z,0.63
2023-04-23T15:39:01.939Z,0.90
2023-04-23T15:41:28.743Z,0.80
2023-04-23T15:43:55.635Z,0.90
2023-04-23T15:46:22.160Z,0.80
2023-04-23T15:48:48.700Z,1.10
2023-04-23T15:51:15.374Z,0.90
2023-04-23T15:53:42.409Z,0.80
2023-04-23T15:56:08.926Z,0.90
2023-04-23T15:58:35.545Z,0.70
2023-04-23T16:01:03.040Z,0.90
2023-04-23T16:03:29.871Z,0.63
2023-04-23T16:05:56.533Z,1.07
2023-04-23T16:08:23.016Z,0.93
2023-04-23T16:10:49.537Z,1.00
2023-04-23T16:13:16.032Z,1.20
2023-04-23T16:15:42.587Z,0.80
2023-04-23T16:18:09.149Z,0.90
2023-04-23T16:20:36.172Z,0.90
2023-04-23T16:23:03.947Z,0.80
2023-04-23T16:25:30.678Z,0.73
2023-04-23T16:27:57.248Z,0.87
2023-04-23T16:30:24.074Z,1.03
2023-04-23T16:32:50.687Z,0.80
2023-04-23T16:35:17.246Z,0.97
2023-04-23T16:37:43.798Z,0.93
2023-04-23T16:40:10.498Z,0.80
2023-04-23T16:42:37.180Z,1.07
2023-04-23T16:45:04.533Z,0.83
2023-04-23T16:47:31.052Z,14.50
2023-04-23T16:49:57.692Z,3.20
2023-04-23T16:52:24.254Z,1.60
2023-04-23T16:54:50.912Z,0.83
2023-04-23T16:57:17.643Z,0.83
2023-04-23T16:59:44.232Z,1.00
2023-04-23T17:02:10.984Z,1.10
2023-04-23T17:04:37.757Z,1.27
2023-04-23T17:07:04.513Z,0.90
2023-04-23T17:09:31.751Z,1.10
2023-04-23T17:11:59.323Z,1.03
2023-04-23T17:14:26.552Z,1.30
2023-04-23T17:16:53.042Z,1.37
2023-04-23T17:19:19.622Z,1.33
2023-04-23T17:21:46.152Z,1.40
2023-04-23T17:24:12.924Z,1.23
2023-04-23T17:26:39.830Z,1.40
2023-04-23T17:29:06.676Z,1.20
2023-04-23T17:31:35.356Z,1.23
2023-04-23T17:34:02.704Z,1.30
2023-04-23T17:36:29.355Z,1.60
2023-04-23T17:38:56.026Z,1.50
2023-04-23T17:41:22.886Z,1.30
2023-04-23T17:43:49.934Z,1.40
2023-04-23T17:46:16.531Z,1.80
2023-04-23T17:48:43.120Z,1.60
2023-04-23T17:51:09.661Z,1.70
2023-04-23T17:53:36.449Z,1.60
2023-04-23T17:56:03.434Z,1.60
2023-04-23T17:58:30.781Z,1.90
2023-04-23T18:00:57.470Z,1.70
2023-04-23T18:03:24.526Z,1.57
2023-04-23T18:05:51.459Z,1.70
2023-04-23T18:08:19.544Z,1.80
2023-04-23T18:10:46.274Z,1.90
2023-04-23T18:13:13.607Z,1.70
2023-04-23T18:15:41.629Z,1.70
2023-04-23T18:18:08.425Z,1.70
2023-04-23T18:20:38.279Z,1.80
2023-04-23T18:23:05.374Z,2.10
2023-04-23T18:25:32.390Z,2.07
2023-04-23T18:27:59.054Z,1.80
2023-04-23T18:30:25.810Z,1.80
2023-04-23T18:32:59.418Z,2.00
2023-04-23T18:35:26.131Z,2.03
2023-04-23T18:38:02.645Z,2.03
2023-04-23T18:40:29.380Z,2.30
2023-04-23T18:42:56.016Z,2.07
2023-04-23T18:45:22.492Z,2.00
2023-04-23T18:47:50.827Z,2.20
2023-04-23T18:50:31.542Z,2.00
2023-04-23T18:52:58.176Z,2.20
2023-04-23T18:55:24.757Z,2.30
2023-04-23T18:57:51.345Z,2.20
2023-04-23T19:00:17.900Z,2.10
2023-04-23T19:02:44.666Z,2.37
2023-04-23T19:05:11.460Z,2.30
2023-04-23T19:07:40.476Z,2.33
2023-04-23T19:10:07.399Z,2.27
2023-04-23T19:12:34.144Z,2.43
2023-04-23T19:15:00.764Z,2.20
2023-04-23T19:17:27.426Z,2.50
2023-04-23T19:19:53.978Z,2.30
2023-04-23T19:22:22.091Z,2.43
2023-04-23T19:24:48.646Z,2.30
2023-04-23T19:27:15.228Z,2.33
2023-04-23T19:29:41.997Z,2.30
2023-04-23T19:32:08.772Z,2.50
2023-04-23T19:34:35.430Z,2.30
2023-04-23T19:37:02.116Z,2.50
2023-04-23T19:39:29.087Z,2.60
2023-04-23T19:41:55.599Z,2.70
2023-04-23T19:44:22.136Z,2.30
2023-04-23T19:46:48.698Z,2.67
2023-04-23T19:49:15.311Z,2.37
2023-04-23T19:51:42.157Z,2.80
2023-04-23T19:54:08.659Z,3.00
2023-04-23T19:56:35.362Z,2.83
2023-04-23T19:59:01.984Z,2.80
2023-04-23T20:01:30.136Z,2.53
2023-04-23T20:03:57.100Z,2.80
2023-04-23T20:06:23.672Z,2.60
2023-04-23T20:09:06.790Z,2.70
2023-04-23T20:11:34.597Z,2.50
2023-04-23T20:14:01.610Z,3.20
2023-04-23T20:16:31.088Z,2.60
2023-04-23T20:18:57.837Z,3.10
2023-04-23T20:21:25.041Z,2.50
2023-04-23T20:23:51.615Z,2.50
2023-04-23T20:26:18.786Z,2.87
2023-04-23T20:28:47.350Z,3.00
2023-04-23T20:31:14.388Z,2.90
2023-04-23T20:33:41.324Z,2.63
2023-04-23T20:36:11.152Z,3.07
2023-04-23T20:38:38.201Z,2.80
2023-04-23T20:41:05.535Z,3.20
2023-04-23T20:43:33.318Z,3.10
2023-04-23T20:46:00.225Z,2.80
2023-04-23T20:48:27.742Z,2.60
2023-04-23T20:50:55.278Z,3.10
2023-04-23T20:53:21.892Z,3.03
2023-04-23T20:55:48.486Z,2.80
2023-04-23T20:58:15.083Z,2.80
2023-04-23T21:00:41.679Z,3.10
2023-04-23T21:03:08.311Z,3.80
2023-04-23T21:05:34.990Z,3.10
2023-04-23T21:08:01.526Z,3.10
2023-04-23T21:10:28.056Z,3.30
2023-04-23T21:12:54.653Z,3.00
2023-04-23T21:15:21.254Z,3.37
2023-04-23T21:17:47.790Z,2.93
2023-04-23T21:20:14.539Z,3.13
2023-04-23T21:22:41.089Z,3.30
2023-04-23T21:25:07.760Z,2.87
2023-04-23T21:27:34.334Z,3.07
2023-04-23T21:30:01.818Z,2.90
2023-04-23T21:32:28.388Z,2.90
2023-04-23T21:34:54.986Z,3.17
2023-04-23T21:37:21.492Z,3.00
2023-04-23T21:39:48.103Z,2.90
2023-04-23T21:42:14.662Z,2.63
2023-04-23T21:44:41.218Z,3.17
2023-04-23T21:47:07.849Z,3.23
2023-04-23T21:49:34.585Z,3.10
2023-04-23T21:52:02.196Z,3.03
2023-04-23T21:54:28.903Z,2.77
2023-04-23T21:56:55.468Z,3.10
2023-04-23T21:59:23.577Z,3.47
2023-04-23T22:01:50.187Z,3.40
2023-04-23T22:04:17.915Z,3.03
2023-04-23T22:06:46.506Z,2.80
2023-04-23T22:09:13.538Z,3.00
2023-04-23T22:11:44.230Z,3.37
2023-04-23T22:14:15.591Z,2.90
2023-04-23T22:16:42.162Z,3.67
2023-04-23T22:19:08.760Z,3.30
2023-04-23T22:21:35.561Z,3.37
2023-04-23T22:24:03.676Z,3.40
2023-04-23T22:26:30.533Z,3.67
2023-04-23T22:28:57.165Z,3.00
2023-04-23T22:31:23.759Z,3.30
2023-04-23T22:33:50.556Z,3.50
2023-04-23T22:36:17.101Z,3.50
2023-04-23T22:38:43.866Z,3.57
2023-04-23T22:41:10.631Z,3.50
2023-04-23T22:43:37.134Z,3.40
2023-04-23T22:46:03.688Z,3.27
2023-04-23T22:48:30.910Z,3.23
2023-04-23T22:50:57.622Z,3.47
2023-04-23T22:53:24.147Z,3.50
2023-04-23T22:55:51.490Z,3.17
2023-04-23T22:58:18.006Z,3.10
2023-04-23T23:00:44.526Z,3.30
2023-04-23T23:03:11.901Z,3.37
2023-04-23T23:05:38.577Z,3.37
2023-04-23T23:08:05.526Z,3.00
2023-04-23T23:10:32.070Z,3.47
2023-04-23T23:12:58.562Z,3.30
2023-04-23T23:15:25.076Z,3.50
2023-04-23T23:17:51.795Z,3.07
2023-04-23T23:20:19.700Z,3.30
2023-04-23T23:22:46.309Z,3.37
2023-04-23T23:25:12.816Z,3.30
2023-04-23T23:27:39.351Z,3.53
2023-04-23T23:30:06.667Z,2.90
2023-04-23T23:32:33.432Z,3.00
2023-04-23T23:35:00.375Z,3.53
2023-04-23T23:37:27.056Z,3.17
2023-04-23T23:39:53.569Z,3.00
2023-04-23T23:42:20.251Z,3.47
2023-04-23T23:44:46.764Z,3.00
2023-04-23T23:47:13.316Z,3.20
2023-04-23T23:49:40.046Z,3.23
2023-04-23T23:52:06.661Z,3.33
2023-04-23T23:54:33.238Z,3.70
2023-04-23T23:56:59.933Z,3.30
2023-04-23T23:59:26.486Z,3.93
